Wenecja, Włochy

03:52 CET dnia 26-październik-2014 (GMT +0100)
Venezia | Change Station
CLOSE
Current Station
Stacja PWS
Location: Dese, Venezia
n.p.m.: 14 ft
Najbliższa stacja pogodowa

Wysokość 14 ft 45.53 °N, 12.31 °E | Updated 3 minutes ago

Clear
pogodnie
47.1 ° F
Odczuwalna 47 ° F
Płn.
0.0
Wiatr zmienny Wiatr od PnWs
Gusts 0.0 mph

Dziś
Wysoka -- | Niska -- ° F
--% Prawdop. opadów
Wczoraj
Wysoka -- | Niska -- ° F
Precip. -- cali
6:41 AM 5:07 PM
Powiększający się sierp Księżyca, 5% visible
Ciśnienie 30.21 cali
Widzialność -9999.0 mil
chmury
czynnik chłodzący wiatru 47 ° F
Punkt rosy 42 ° F
Wilgotność 82%
Opady deszczu 0.00 cali
grubość pokrywy śnieżnej Niedostępne.
UV Niedostępne.
Pyłki Niedostępne.
Jakość powietrza Niedostępne.
Flu Activity Niedostępne.
METAR LIPZ 260220Z 35006KT CAVOK 10/06 Q1023

More Conditions Fewer Conditions

Ciśnienie 30.21 cali
Widzialność -9999.0 mil
chmury
czynnik chłodzący wiatru 47 ° F
Punkt rosy 42 ° F
Wilgotność 82%
Opady deszczu 0.00 cali
grubość pokrywy śnieżnej Niedostępne.
UV Niedostępne.
Pyłki Niedostępne.
Jakość powietrza Niedostępne.
Flu Activity Niedostępne.
METAR LIPZ 260220Z 35006KT CAVOK 10/06 Q1023

More Conditions Fewer Conditions

10-Day Weather Forecast

Almanac

Astronomia

Oct. 26, 2014 Wschód Zachów
Aktualny czas 06:41 CET 17:07 CET
Zmierzch cywilny 06:10 CET 17:37 CET
Zmierzch żeglarski 05:36 CET 18:12 CET
świt/zmierzch astronomiczny 05:01 CET 18:46 CET
Księżyc 09:07 CET 18:59 CET
całkowite oświetlenie 11h 26m
Długość dnia
10h 25m
Tomorrow will be 2m 57s shorter.
Powiększający się sierp Księżyca, 5% of the Moon is Illuminated
Październik 25
Powiększający się sierp Księżyca
Październik 30
Pierwsza kwadra
Listopad 6
Pełnia Księżyca
Listopad 14
Ostatnia kwadra
Listopad 22
Nowy

Wczorajsze ekstrema

Country Highs Country Lows

Community

WunderPhotos

Upload Photos

1,765,086 zdjęcia zostały przesłane!

Nearby

Jakość powietrza

Not available.

Głębokość pokrywy śnieżnej

Not available.

Aktywność sejsmiczna

Miejscowość Distance Mag. Time & Date
No recent earthquake activity has been reported nearby.
Minimum magnitude displayed is 2.5.

Temperatury wody na wybrzeżu

Miejsce Temperatura
Nie znaleziono stacji

Najbliższa stacja pogodowa